Terminal Aerodrome Forecast
Issued by NWS El Paso, TX

Home | Current Version | Previous Version | Text Only | Print | Product List | Glossary On
Versions: 1 2 3 4 5 6 7 8 9 10 11 12 13 14 15 16
000
FTUS44 KEPZ 281857 AAA
TAFELP
TAF AMD
KELP 281857Z 2819/2918 10010KT P6SM FEW060 SCT200
     FM290200 07007KT P6SM FEW120
     FM291200 06006KT P6SM BKN250=

USA.gov is the U.S. government's official web portal to all federal, state and local government web resources and services.